sensor_id;sensor_type;location;lat;lon;timestamp;pressure;altitude;pressure_sealevel;temperature;humidity
47763;BME280;33526;42.690;23.322;2023-06-05T00:02:06;95556.38;;;15.24;100.00
47763;BME280;33526;42.690;23.322;2023-06-05T00:04:31;95534.63;;;15.10;100.00
47763;BME280;33526;42.690;23.322;2023-06-05T00:06:56;95547.44;;;15.26;100.00
47763;BME280;33526;42.690;23.322;2023-06-05T00:09:22;95539.88;;;15.17;100.00
47763;BME280;33526;42.690;23.322;2023-06-05T00:11:48;95551.00;;;15.26;100.00
47763;BME280;33526;42.690;23.322;2023-06-05T00:14:14;95553.84;;;15.26;100.00
47763;BME280;33526;42.690;23.322;2023-06-05T00:16:40;95555.59;;;15.24;100.00
47763;BME280;33526;42.690;23.322;2023-06-05T00:19:06;95535.59;;;15.07;100.00
47763;BME280;33526;42.690;23.322;2023-06-05T00:21:32;95554.72;;;15.18;100.00
47763;BME280;33526;42.690;23.322;2023-06-05T00:23:57;95523.19;;;14.99;100.00
47763;BME280;33526;42.690;23.322;2023-06-05T00:26:22;95505.75;;;14.95;100.00
47763;BME280;33526;42.690;23.322;2023-06-05T00:28:48;95554.03;;;15.23;100.00
47763;BME280;33526;42.690;23.322;2023-06-05T00:31:14;95549.41;;;15.20;100.00
47763;BME280;33526;42.690;23.322;2023-06-05T00:33:40;95551.41;;;15.19;100.00
47763;BME280;33526;42.690;23.322;2023-06-05T00:36:05;95518.72;;;14.92;100.00
47763;BME280;33526;42.690;23.322;2023-06-05T00:38:31;95532.91;;;15.13;100.00
47763;BME280;33526;42.690;23.322;2023-06-05T00:40:56;95502.53;;;14.87;100.00
47763;BME280;33526;42.690;23.322;2023-06-05T00:43:22;95538.72;;;15.09;100.00
47763;BME280;33526;42.690;23.322;2023-06-05T00:45:47;95536.50;;;15.13;100.00
47763;BME280;33526;42.690;23.322;2023-06-05T00:48:14;95544.94;;;15.13;100.00
47763;BME280;33526;42.690;23.322;2023-06-05T00:50:39;95538.53;;;15.13;100.00
47763;BME280;33526;42.690;23.322;2023-06-05T00:53:06;95534.91;;;15.12;100.00
47763;BME280;33526;42.690;23.322;2023-06-05T00:55:32;95525.66;;;14.91;100.00
47763;BME280;33526;42.690;23.322;2023-06-05T00:57:59;95519.69;;;14.89;100.00
47763;BME280;33526;42.690;23.322;2023-06-05T01:00:26;95498.97;;;14.71;100.00
47763;BME280;33526;42.690;23.322;2023-06-05T01:02:52;95530.59;;;14.81;100.00
47763;BME280;33526;42.690;23.322;2023-06-05T01:05:19;95534.69;;;14.80;100.00
47763;BME280;33526;42.690;23.322;2023-06-05T01:07:45;95527.09;;;14.86;100.00
47763;BME280;33526;42.690;23.322;2023-06-05T01:10:31;95531.75;;;14.89;100.00
47763;BME280;33526;42.690;23.322;2023-06-05T01:15:27;95516.59;;;14.87;100.00
47763;BME280;33526;42.690;23.322;2023-06-05T01:17:57;95523.97;;;14.99;100.00
47763;BME280;33526;42.690;23.322;2023-06-05T01:20:31;95521.66;;;14.83;100.00
47763;BME280;33526;42.690;23.322;2023-06-05T01:22:57;95508.75;;;14.76;100.00
47763;BME280;33526;42.690;23.322;2023-06-05T01:25:22;95503.81;;;14.86;100.00
47763;BME280;33526;42.690;23.322;2023-06-05T01:27:55;95492.16;;;14.78;100.00
47763;BME280;33526;42.690;23.322;2023-06-05T01:31:08;95512.44;;;14.97;100.00
47763;BME280;33526;42.690;23.322;2023-06-05T01:33:19;95506.03;;;14.97;100.00
47763;BME280;33526;42.690;23.322;2023-06-05T01:35:45;95492.63;;;14.91;100.00
47763;BME280;33526;42.690;23.322;2023-06-05T01:38:17;95496.00;;;14.96;100.00
47763;BME280;33526;42.690;23.322;2023-06-05T01:40:44;95475.19;;;14.87;100.00
47763;BME280;33526;42.690;23.322;2023-06-05T01:43:10;95494.47;;;14.95;100.00
47763;BME280;33526;42.690;23.322;2023-06-05T01:45:37;95487.28;;;14.94;100.00
47763;BME280;33526;42.690;23.322;2023-06-05T01:48:07;95494.88;;;14.87;100.00
47763;BME280;33526;42.690;23.322;2023-06-05T01:50:36;95495.28;;;14.80;100.00
47763;BME280;33526;42.690;23.322;2023-06-05T01:53:05;95500.91;;;14.80;100.00
47763;BME280;33526;42.690;23.322;2023-06-05T01:55:32;95480.22;;;14.68;100.00
47763;BME280;33526;42.690;23.322;2023-06-05T01:57:58;95490.25;;;14.69;100.00
47763;BME280;33526;42.690;23.322;2023-06-05T02:00:23;95509.63;;;14.82;100.00
47763;BME280;33526;42.690;23.322;2023-06-05T02:02:49;95439.66;;;14.30;100.00
47763;BME280;33526;42.690;23.322;2023-06-05T02:05:16;95519.53;;;14.78;100.00
47763;BME280;33526;42.690;23.322;2023-06-05T02:07:45;95504.41;;;14.75;100.00
47763;BME280;33526;42.690;23.322;2023-06-05T02:10:14;95486.72;;;14.60;100.00
47763;BME280;33526;42.690;23.322;2023-06-05T02:12:40;95474.31;;;14.51;100.00
47763;BME280;33526;42.690;23.322;2023-06-05T02:15:08;95508.47;;;14.74;100.00
47763;BME280;33526;42.690;23.322;2023-06-05T02:17:41;95513.13;;;14.77;100.00
47763;BME280;33526;42.690;23.322;2023-06-05T02:20:15;95501.28;;;14.73;100.00
47763;BME280;33526;42.690;23.322;2023-06-05T02:22:41;95505.94;;;14.76;100.00
47763;BME280;33526;42.690;23.322;2023-06-05T02:25:07;95498.97;;;14.71;100.00
47763;BME280;33526;42.690;23.322;2023-06-05T02:27:33;95472.38;;;14.58;100.00
47763;BME280;33526;42.690;23.322;2023-06-05T02:29:58;95508.25;;;14.78;100.00
47763;BME280;33526;42.690;23.322;2023-06-05T02:32:24;95478.00;;;14.58;100.00
47763;BME280;33526;42.690;23.322;2023-06-05T02:34:52;95472.38;;;14.58;100.00
47763;BME280;33526;42.690;23.322;2023-06-05T02:37:17;95491.97;;;14.67;100.00
47763;BME280;33526;42.690;23.322;2023-06-05T02:39:44;95504.41;;;14.75;100.00
47763;BME280;33526;42.690;23.322;2023-06-05T02:42:10;95507.00;;;14.64;100.00
47763;BME280;33526;42.690;23.322;2023-06-05T02:44:37;95467.59;;;14.34;100.00
47763;BME280;33526;42.690;23.322;2023-06-05T02:47:03;95487.09;;;14.52;100.00
47763;BME280;33526;42.690;23.322;2023-06-05T02:49:29;95502.84;;;14.59;100.00
47763;BME280;33526;42.690;23.322;2023-06-05T02:51:54;95504.53;;;14.57;100.00
47763;BME280;33526;42.690;23.322;2023-06-05T02:54:20;95510.31;;;14.62;100.00
47763;BME280;33526;42.690;23.322;2023-06-05T02:56:46;95490.00;;;14.43;100.00
47763;BME280;33526;42.690;23.322;2023-06-05T02:59:12;95502.84;;;14.59;100.00
47763;BME280;33526;42.690;23.322;2023-06-05T03:01:37;95505.47;;;14.63;100.00
47763;BME280;33526;42.690;23.322;2023-06-05T03:04:03;95502.06;;;14.59;100.00
47763;BME280;33526;42.690;23.322;2023-06-05T03:06:29;95521.44;;;14.57;100.00
47763;BME280;33526;42.690;23.322;2023-06-05T03:08:59;95492.63;;;14.32;100.00
47763;BME280;33526;42.690;23.322;2023-06-05T03:11:24;95519.97;;;14.46;100.00
47763;BME280;33526;42.690;23.322;2023-06-05T03:13:52;95521.25;;;14.60;100.00
47763;BME280;33526;42.690;23.322;2023-06-05T03:16:17;95520.84;;;14.52;100.00
47763;BME280;33526;42.690;23.322;2023-06-05T03:18:44;95500.47;;;14.43;100.00
47763;BME280;33526;42.690;23.322;2023-06-05T03:21:09;95535.47;;;14.66;100.00
47763;BME280;33526;42.690;23.322;2023-06-05T03:23:35;95520.88;;;14.67;100.00
47763;BME280;33526;42.690;23.322;2023-06-05T03:26:01;95507.06;;;14.54;100.00
47763;BME280;33526;42.690;23.322;2023-06-05T03:28:28;95502.63;;;14.48;100.00
47763;BME280;33526;42.690;23.322;2023-06-05T03:30:54;95519.13;;;14.55;100.00
47763;BME280;33526;42.690;23.322;2023-06-05T03:33:19;95538.94;;;14.76;100.00
47763;BME280;33526;42.690;23.322;2023-06-05T03:35:45;95528.84;;;14.69;100.00
47763;BME280;33526;42.690;23.322;2023-06-05T03:38:14;95532.25;;;14.73;100.00
47763;BME280;33526;42.690;23.322;2023-06-05T03:40:40;95537.78;;;14.82;100.00
47763;BME280;33526;42.690;23.322;2023-06-05T03:43:06;95529.34;;;14.82;100.00
47763;BME280;33526;42.690;23.322;2023-06-05T03:45:35;95532.81;;;14.77;100.00
47763;BME280;33526;42.690;23.322;2023-06-05T03:48:00;95542.81;;;14.93;100.00
47763;BME280;33526;42.690;23.322;2023-06-05T03:50:27;95520.41;;;14.84;100.00
47763;BME280;33526;42.690;23.322;2023-06-05T03:52:56;95536.72;;;14.95;100.00
47763;BME280;33526;42.690;23.322;2023-06-05T03:55:34;95530.69;;;15.02;100.00
47763;BME280;33526;42.690;23.322;2023-06-05T03:58:10;95536.19;;;15.11;100.00
47763;BME280;33526;42.690;23.322;2023-06-05T04:00:40;95539.34;;;15.34;100.00
47763;BME280;33526;42.690;23.322;2023-06-05T04:03:06;95522.84;;;15.62;100.00
47763;BME280;33526;42.690;23.322;2023-06-05T04:05:34;95524.50;;;15.89;97.08
47763;BME280;33526;42.690;23.322;2023-06-05T04:07:59;95534.78;;;16.33;93.98
47763;BME280;33526;42.690;23.322;2023-06-05T04:10:25;95493.72;;;16.32;92.33
47763;BME280;33526;42.690;23.322;2023-06-05T04:12:50;95542.31;;;16.68;90.71
47763;BME280;33526;42.690;23.322;2023-06-05T04:15:16;95529.56;;;16.73;89.09
47763;BME280;33526;42.690;23.322;2023-06-05T04:17:41;95526.72;;;16.73;89.31
47763;BME280;33526;42.690;23.322;2023-06-05T04:20:07;95546.16;;;17.23;87.76
47763;BME280;33526;42.690;23.322;2023-06-05T04:22:39;95546.63;;;17.53;86.18
47763;BME280;33526;42.690;23.322;2023-06-05T04:25:04;95551.78;;;17.92;83.42
47763;BME280;33526;42.690;23.322;2023-06-05T04:27:30;95542.41;;;17.75;83.70
47763;BME280;33526;42.690;23.322;2023-06-05T04:29:56;95550.97;;;17.11;86.07
47763;BME280;33526;42.690;23.322;2023-06-05T04:32:21;95534.56;;;16.63;89.39
47763;BME280;33526;42.690;23.322;2023-06-05T04:34:47;95554.06;;;16.61;91.22
47763;BME280;33526;42.690;23.322;2023-06-05T04:37:12;95524.72;;;16.53;90.70
47763;BME280;33526;42.690;23.322;2023-06-05T04:39:38;95538.75;;;16.68;91.63
47763;BME280;33526;42.690;23.322;2023-06-05T04:42:04;95527.63;;;16.58;91.75
47763;BME280;33526;42.690;23.322;2023-06-05T04:44:30;95542.28;;;16.62;91.88
47763;BME280;33526;42.690;23.322;2023-06-05T04:46:56;95543.88;;;16.69;91.97
47763;BME280;33526;42.690;23.322;2023-06-05T04:49:22;95545.16;;;16.68;91.86
47763;BME280;33526;42.690;23.322;2023-06-05T04:51:51;95540.75;;;16.67;92.22
47763;BME280;33526;42.690;23.322;2023-06-05T04:54:18;95546.81;;;16.80;92.51
47763;BME280;33526;42.690;23.322;2023-06-05T04:56:44;95512.00;;;16.63;91.97
47763;BME280;33526;42.690;23.322;2023-06-05T04:59:10;95550.03;;;16.94;92.13
47763;BME280;33526;42.690;23.322;2023-06-05T05:01:36;95525.91;;;16.93;90.82
47763;BME280;33526;42.690;23.322;2023-06-05T05:04:01;95548.59;;;17.36;89.95
47763;BME280;33526;42.690;23.322;2023-06-05T05:06:27;95529.75;;;17.65;87.78
47763;BME280;33526;42.690;23.322;2023-06-05T05:08:53;95543.34;;;18.04;85.35
47763;BME280;33526;42.690;23.322;2023-06-05T05:11:19;95527.69;;;18.08;84.72
47763;BME280;33526;42.690;23.322;2023-06-05T05:13:45;95546.81;;;18.42;83.32
47763;BME280;33526;42.690;23.322;2023-06-05T05:16:10;95545.69;;;19.05;80.11
47763;BME280;33526;42.690;23.322;2023-06-05T05:18:40;95542.84;;;19.44;79.14
47763;BME280;33526;42.690;23.322;2023-06-05T05:21:06;95531.69;;;20.03;75.80
47763;BME280;33526;42.690;23.322;2023-06-05T05:23:32;95532.44;;;20.68;72.30
47763;BME280;33526;42.690;23.322;2023-06-05T05:26:00;95533.91;;;21.52;69.22
47763;BME280;33526;42.690;23.322;2023-06-05T05:28:27;95520.94;;;21.81;68.02
47763;BME280;33526;42.690;23.322;2023-06-05T05:30:52;95527.25;;;22.18;66.30
47763;BME280;33526;42.690;23.322;2023-06-05T05:33:18;95502.75;;;22.33;64.90
47763;BME280;33526;42.690;23.322;2023-06-05T05:35:44;95519.38;;;22.48;64.49
47763;BME280;33526;42.690;23.322;2023-06-05T05:38:09;95521.72;;;22.69;63.31
47763;BME280;33526;42.690;23.322;2023-06-05T05:40:35;95526.94;;;22.46;64.68
47763;BME280;33526;42.690;23.322;2023-06-05T05:43:00;95526.91;;;22.27;64.70
47763;BME280;33526;42.690;23.322;2023-06-05T05:45:26;95505.38;;;22.07;65.41
47763;BME280;33526;42.690;23.322;2023-06-05T05:47:52;95530.38;;;21.95;66.14
47763;BME280;33526;42.690;23.322;2023-06-05T05:50:18;95519.81;;;21.65;67.40
47763;BME280;33526;42.690;23.322;2023-06-05T05:52:43;95527.91;;;21.80;67.38
47763;BME280;33526;42.690;23.322;2023-06-05T05:55:11;95500.06;;;21.48;68.64
47763;BME280;33526;42.690;23.322;2023-06-05T05:57:37;95510.19;;;21.08;69.97
47763;BME280;33526;42.690;23.322;2023-06-05T06:00:03;95463.78;;;20.64;71.25
47763;BME280;33526;42.690;23.322;2023-06-05T06:02:34;95485.16;;;20.70;71.00
47763;BME280;33526;42.690;23.322;2023-06-05T06:04:59;95504.06;;;21.28;70.69
47763;BME280;33526;42.690;23.322;2023-06-05T06:07:27;95465.44;;;21.93;67.67
47763;BME280;33526;42.690;23.322;2023-06-05T06:09:53;95452.88;;;22.27;65.16
47763;BME280;33526;42.690;23.322;2023-06-05T06:12:19;95486.00;;;23.19;62.33
47763;BME280;33526;42.690;23.322;2023-06-05T06:14:44;95451.47;;;22.52;63.79
47763;BME280;33526;42.690;23.322;2023-06-05T06:17:10;95458.56;;;22.27;64.17
47763;BME280;33526;42.690;23.322;2023-06-05T06:19:37;95454.88;;;22.32;63.58
47763;BME280;33526;42.690;23.322;2023-06-05T06:22:03;95461.16;;;22.06;63.46
47763;BME280;33526;42.690;23.322;2023-06-05T06:24:28;95514.00;;;22.64;64.40
47763;BME280;33526;42.690;23.322;2023-06-05T06:26:54;95485.31;;;22.94;61.19
47763;BME280;33526;42.690;23.322;2023-06-05T06:29:20;95513.38;;;23.09;60.96
47763;BME280;33526;42.690;23.322;2023-06-05T06:31:46;95506.16;;;23.21;61.43
47763;BME280;33526;42.690;23.322;2023-06-05T06:34:12;95499.41;;;22.86;60.75
47763;BME280;33526;42.690;23.322;2023-06-05T06:36:37;95494.91;;;21.96;63.25
47763;BME280;33526;42.690;23.322;2023-06-05T06:39:06;95507.50;;;21.51;64.66
47763;BME280;33526;42.690;23.322;2023-06-05T06:41:35;95494.66;;;21.39;65.73
47763;BME280;33526;42.690;23.322;2023-06-05T06:44:01;95491.22;;;22.01;64.71
47763;BME280;33526;42.690;23.322;2023-06-05T06:46:27;95480.66;;;21.96;63.56
47763;BME280;33526;42.690;23.322;2023-06-05T06:48:52;95490.75;;;21.72;64.39
47763;BME280;33526;42.690;23.322;2023-06-05T06:51:18;95499.06;;;21.40;66.02
47763;BME280;33526;42.690;23.322;2023-06-05T06:53:43;95504.91;;;21.23;66.71
47763;BME280;33526;42.690;23.322;2023-06-05T06:56:09;95502.25;;;21.61;66.48
47763;BME280;33526;42.690;23.322;2023-06-05T06:58:35;95502.94;;;21.12;66.18
47763;BME280;33526;42.690;23.322;2023-06-05T07:01:01;95477.84;;;20.80;67.05
47763;BME280;33526;42.690;23.322;2023-06-05T07:03:27;95477.69;;;21.03;66.80
47763;BME280;33526;42.690;23.322;2023-06-05T07:05:52;95490.69;;;21.23;66.20
47763;BME280;33526;42.690;23.322;2023-06-05T07:08:17;95486.00;;;20.95;66.47
47763;BME280;33526;42.690;23.322;2023-06-05T07:10:43;95491.44;;;20.52;68.36
47763;BME280;33526;42.690;23.322;2023-06-05T07:13:08;95461.84;;;20.36;69.11
47763;BME280;33526;42.690;23.322;2023-06-05T07:15:33;95497.41;;;20.90;68.66
47763;BME280;33526;42.690;23.322;2023-06-05T07:17:59;95485.00;;;21.23;67.69
47763;BME280;33526;42.690;23.322;2023-06-05T07:20:24;95488.34;;;21.27;66.11
47763;BME280;33526;42.690;23.322;2023-06-05T07:22:50;95437.03;;;20.84;67.17
47763;BME280;33526;42.690;23.322;2023-06-05T07:25:15;95475.78;;;21.42;66.46
47763;BME280;33526;42.690;23.322;2023-06-05T07:27:43;95496.09;;;20.96;66.75
47763;BME280;33526;42.690;23.322;2023-06-05T07:30:09;95499.47;;;21.25;66.80
47763;BME280;33526;42.690;23.322;2023-06-05T07:32:35;95506.22;;;21.22;66.25
47763;BME280;33526;42.690;23.322;2023-06-05T07:35:01;95482.69;;;21.22;65.74
47763;BME280;33526;42.690;23.322;2023-06-05T07:37:27;95486.25;;;21.28;66.12
47763;BME280;33526;42.690;23.322;2023-06-05T07:39:53;95494.44;;;21.07;66.64
47763;BME280;33526;42.690;23.322;2023-06-05T07:42:19;95501.00;;;21.56;66.40
47763;BME280;33526;42.690;23.322;2023-06-05T07:44:44;95513.53;;;22.16;63.36
47763;BME280;33526;42.690;23.322;2023-06-05T07:47:10;95516.16;;;22.14;62.68
47763;BME280;33526;42.690;23.322;2023-06-05T07:49:35;95515.63;;;22.15;62.70
47763;BME280;33526;42.690;23.322;2023-06-05T07:52:01;95489.63;;;22.25;61.70
47763;BME280;33526;42.690;23.322;2023-06-05T07:54:26;95505.19;;;21.50;64.02
47763;BME280;33526;42.690;23.322;2023-06-05T07:56:52;95452.44;;;21.24;64.62
47763;BME280;33526;42.690;23.322;2023-06-05T07:59:17;95486.13;;;21.94;63.18
47763;BME280;33526;42.690;23.322;2023-06-05T08:01:49;95475.66;;;22.27;61.99
47763;BME280;33526;42.690;23.322;2023-06-05T08:04:15;95487.81;;;22.46;62.14
47763;BME280;33526;42.690;23.322;2023-06-05T08:06:41;95511.38;;;22.28;61.84
47763;BME280;33526;42.690;23.322;2023-06-05T08:09:07;95500.59;;;21.71;63.63
47763;BME280;33526;42.690;23.322;2023-06-05T08:11:35;95505.69;;;22.03;63.07
47763;BME280;33526;42.690;23.322;2023-06-05T08:14:02;95488.81;;;22.05;61.77
47763;BME280;33526;42.690;23.322;2023-06-05T08:16:29;95510.88;;;22.24;62.91
47763;BME280;33526;42.690;23.322;2023-06-05T08:18:54;95507.31;;;22.42;61.83
47763;BME280;33526;42.690;23.322;2023-06-05T08:21:20;95501.28;;;22.65;60.87
47763;BME280;33526;42.690;23.322;2023-06-05T08:23:45;95461.16;;;22.82;60.08
47763;BME280;33526;42.690;23.322;2023-06-05T08:26:11;95509.69;;;22.76;60.79
47763;BME280;33526;42.690;23.322;2023-06-05T08:28:40;95495.09;;;22.99;59.28
47763;BME280;33526;42.690;23.322;2023-06-05T08:31:09;95501.25;;;23.35;58.32
47763;BME280;33526;42.690;23.322;2023-06-05T08:33:36;95502.19;;;23.11;58.45
47763;BME280;33526;42.690;23.322;2023-06-05T08:36:02;95513.28;;;23.15;58.63
47763;BME280;33526;42.690;23.322;2023-06-05T08:38:29;95518.53;;;23.43;57.44
47763;BME280;33526;42.690;23.322;2023-06-05T08:41:04;95500.50;;;23.35;57.14
47763;BME280;33526;42.690;23.322;2023-06-05T08:43:31;95489.88;;;22.65;59.88
47763;BME280;33526;42.690;23.322;2023-06-05T08:45:59;95513.38;;;23.09;58.58
47763;BME280;33526;42.690;23.322;2023-06-05T08:48:25;95504.72;;;22.96;57.72
47763;BME280;33526;42.690;23.322;2023-06-05T08:51:01;95524.63;;;22.82;59.11
47763;BME280;33526;42.690;23.322;2023-06-05T08:53:32;95505.28;;;22.37;60.75
47763;BME280;33526;42.690;23.322;2023-06-05T08:56:02;95469.25;;;21.77;61.55
47763;BME280;33526;42.690;23.322;2023-06-05T08:58:28;95461.19;;;21.56;62.54
47763;BME280;33526;42.690;23.322;2023-06-05T09:00:54;95514.75;;;22.26;61.66
47763;BME280;33526;42.690;23.322;2023-06-05T09:03:21;95438.09;;;22.28;60.54
47763;BME280;33526;42.690;23.322;2023-06-05T09:05:47;95508.75;;;22.68;59.16
47763;BME280;33526;42.690;23.322;2023-06-05T09:08:14;95468.56;;;22.52;58.77
47763;BME280;33526;42.690;23.322;2023-06-05T09:10:41;95397.13;;;21.93;59.45
47763;BME280;33526;42.690;23.322;2023-06-05T09:13:06;95524.00;;;22.70;59.21
47763;BME280;33526;42.690;23.322;2023-06-05T09:15:33;95424.13;;;21.62;60.03
47763;BME280;33526;42.690;23.322;2023-06-05T09:18:09;95459.09;;;21.82;60.61
47763;BME280;33526;42.690;23.322;2023-06-05T09:20:37;95512.28;;;22.36;60.53
47763;BME280;33526;42.690;23.322;2023-06-05T09:23:04;95494.22;;;22.09;60.78
47763;BME280;33526;42.690;23.322;2023-06-05T09:25:48;95472.28;;;22.28;59.52
47763;BME280;33526;42.690;23.322;2023-06-05T09:28:15;95502.44;;;22.75;59.60
47763;BME280;33526;42.690;23.322;2023-06-05T09:31:03;95459.44;;;21.97;59.06
47763;BME280;33526;42.690;23.322;2023-06-05T09:33:37;95456.81;;;21.99;59.41
47763;BME280;33526;42.690;23.322;2023-06-05T09:36:11;95439.44;;;22.03;58.50
47763;BME280;33526;42.690;23.322;2023-06-05T09:38:41;95521.53;;;22.80;59.07
47763;BME280;33526;42.690;23.322;2023-06-05T09:41:09;95509.25;;;23.23;58.34
47763;BME280;33526;42.690;23.322;2023-06-05T09:43:36;95506.78;;;23.46;57.66
47763;BME280;33526;42.690;23.322;2023-06-05T09:46:11;95465.41;;;23.53;56.55
47763;BME280;33526;42.690;23.322;2023-06-05T09:48:39;95401.88;;;23.53;54.28
47763;BME280;33526;42.690;23.322;2023-06-05T09:51:11;95511.72;;;24.18;53.48
47763;BME280;33526;42.690;23.322;2023-06-05T09:53:48;95479.31;;;24.02;54.75
47763;BME280;33526;42.690;23.322;2023-06-05T09:56:21;95437.78;;;23.61;54.74
47763;BME280;33526;42.690;23.322;2023-06-05T09:58:48;95445.69;;;23.55;54.28
47763;BME280;33526;42.690;23.322;2023-06-05T10:01:23;95438.75;;;23.64;53.73
47763;BME280;33526;42.690;23.322;2023-06-05T10:04:00;95501.81;;;23.93;54.66
47763;BME280;33526;42.690;23.322;2023-06-05T10:06:28;95493.97;;;23.66;52.83
47763;BME280;33526;42.690;23.322;2023-06-05T10:08:55;95483.59;;;23.23;53.46
47763;BME280;33526;42.690;23.322;2023-06-05T10:11:22;95490.44;;;23.47;54.87
47763;BME280;33526;42.690;23.322;2023-06-05T10:13:48;95489.78;;;23.54;55.39
47763;BME280;33526;42.690;23.322;2023-06-05T10:16:16;95485.50;;;23.47;54.63
47763;BME280;33526;42.690;23.322;2023-06-05T10:18:46;95491.13;;;23.66;54.83
47763;BME280;33526;42.690;23.322;2023-06-05T10:21:13;95471.81;;;23.59;55.23
47763;BME280;33526;42.690;23.322;2023-06-05T10:23:39;95488.72;;;23.84;55.26
47763;BME280;33526;42.690;23.322;2023-06-05T10:26:10;95484.22;;;23.75;55.88
47763;BME280;33526;42.690;23.322;2023-06-05T10:29:00;95463.00;;;23.44;56.44
47763;BME280;33526;42.690;23.322;2023-06-05T10:31:48;95469.28;;;23.56;56.29
47763;BME280;33526;42.690;23.322;2023-06-05T10:34:42;95488.81;;;23.78;56.02
47763;BME280;33526;42.690;23.322;2023-06-05T10:39:58;95464.41;;;23.37;56.79
47763;BME280;33526;42.690;23.322;2023-06-05T10:42:28;95475.53;;;23.67;56.47
47763;BME280;33526;42.690;23.322;2023-06-05T10:44:54;95475.94;;;23.45;55.79
47763;BME280;33526;42.690;23.322;2023-06-05T10:52:48;95454.97;;;23.29;56.67
47763;BME280;33526;42.690;23.322;2023-06-05T10:55:15;95460.03;;;23.36;57.39
47763;BME280;33526;42.690;23.322;2023-06-05T11:00:29;95464.53;;;23.58;57.26
47763;BME280;33526;42.690;23.322;2023-06-05T11:02:55;95453.13;;;23.45;56.69
47763;BME280;33526;42.690;23.322;2023-06-05T11:05:21;95463.13;;;23.52;57.47
47763;BME280;33526;42.690;23.322;2023-06-05T11:07:47;95459.84;;;23.61;57.51
47763;BME280;33526;42.690;23.322;2023-06-05T11:10:16;95432.72;;;23.54;58.07
47763;BME280;33526;42.690;23.322;2023-06-05T11:15:35;95459.09;;;23.87;57.58
47763;BME280;33526;42.690;23.322;2023-06-05T11:18:26;95456.91;;;24.07;56.35
47763;BME280;33526;42.690;23.322;2023-06-05T11:20:51;95419.22;;;23.95;55.44
47763;BME280;33526;42.690;23.322;2023-06-05T11:23:17;95441.53;;;24.10;53.72
47763;BME280;33526;42.690;23.322;2023-06-05T11:25:43;95400.03;;;23.55;54.16
47763;BME280;33526;42.690;23.322;2023-06-05T11:28:08;95434.94;;;23.88;54.45
47763;BME280;33526;42.690;23.322;2023-06-05T11:30:42;95434.81;;;23.67;53.99
47763;BME280;33526;42.690;23.322;2023-06-05T11:35:35;95414.50;;;23.84;54.22
47763;BME280;33526;42.690;23.322;2023-06-05T11:38:07;95430.75;;;24.16;53.18
47763;BME280;33526;42.690;23.322;2023-06-05T11:40:34;95410.44;;;24.06;53.44
47763;BME280;33526;42.690;23.322;2023-06-05T11:43:08;95421.00;;;23.98;52.99
47763;BME280;33526;42.690;23.322;2023-06-05T11:45:35;95420.34;;;23.92;53.98
47763;BME280;33526;42.690;23.322;2023-06-05T11:48:12;95402.22;;;24.02;53.01
47763;BME280;33526;42.690;23.322;2023-06-05T11:50:51;95409.44;;;23.63;53.34
47763;BME280;33526;42.690;23.322;2023-06-05T11:53:17;95384.22;;;23.41;54.37
47763;BME280;33526;42.690;23.322;2023-06-05T11:55:42;95395.84;;;23.70;55.29
47763;BME280;33526;42.690;23.322;2023-06-05T11:58:30;95411.09;;;24.12;54.24
47763;BME280;33526;42.690;23.322;2023-06-05T12:01:08;95404.34;;;24.23;52.20
47763;BME280;33526;42.690;23.322;2023-06-05T12:03:44;95408.78;;;24.45;52.70
47763;BME280;33526;42.690;23.322;2023-06-05T12:06:10;95413.06;;;24.52;51.53
47763;BME280;33526;42.690;23.322;2023-06-05T12:08:38;95416.59;;;24.58;50.78
47763;BME280;33526;42.690;23.322;2023-06-05T12:11:20;95390.72;;;24.29;51.77
47763;BME280;33526;42.690;23.322;2023-06-05T12:13:49;95404.72;;;24.54;53.13
47763;BME280;33526;42.690;23.322;2023-06-05T12:16:17;95396.53;;;24.71;52.39
47763;BME280;33526;42.690;23.322;2023-06-05T12:18:44;95386.47;;;24.57;51.40
47763;BME280;33526;42.690;23.322;2023-06-05T12:21:24;95373.66;;;24.71;51.80
47763;BME280;33526;42.690;23.322;2023-06-05T12:23:50;95391.78;;;24.74;49.90
47763;BME280;33526;42.690;23.322;2023-06-05T12:26:16;95389.44;;;24.86;50.51
47763;BME280;33526;42.690;23.322;2023-06-05T12:28:43;95386.28;;;24.97;50.06
47763;BME280;33526;42.690;23.322;2023-06-05T12:31:55;95386.56;;;25.07;50.80
47763;BME280;33526;42.690;23.322;2023-06-05T12:33:55;95374.78;;;24.68;50.88
47763;BME280;33526;42.690;23.322;2023-06-05T12:36:22;95346.13;;;24.60;51.08
47763;BME280;33526;42.690;23.322;2023-06-05T12:38:48;95361.38;;;25.05;51.27
47763;BME280;33526;42.690;23.322;2023-06-05T12:41:13;95323.94;;;24.95;50.42
47763;BME280;33526;42.690;23.322;2023-06-05T12:43:39;95366.03;;;25.37;50.26
47763;BME280;33526;42.690;23.322;2023-06-05T12:46:05;95365.69;;;25.19;48.36
47763;BME280;33526;42.690;23.322;2023-06-05T12:48:33;95304.06;;;24.48;48.96
47763;BME280;33526;42.690;23.322;2023-06-05T12:50:59;95345.50;;;24.54;49.82
47763;BME280;33526;42.690;23.322;2023-06-05T12:53:25;95317.28;;;24.37;50.08
47763;BME280;33526;42.690;23.322;2023-06-05T12:55:51;95341.38;;;24.84;49.47
47763;BME280;33526;42.690;23.322;2023-06-05T12:58:16;95315.66;;;24.63;48.94
47763;BME280;33526;42.690;23.322;2023-06-05T13:00:42;95329.53;;;24.80;48.68
47763;BME280;33526;42.690;23.322;2023-06-05T13:03:09;95339.44;;;24.79;49.18
47763;BME280;33526;42.690;23.322;2023-06-05T13:05:35;95318.78;;;24.94;47.88
47763;BME280;33526;42.690;23.322;2023-06-05T13:08:01;95303.56;;;24.99;47.63
47763;BME280;33526;42.690;23.322;2023-06-05T13:10:28;95338.84;;;25.51;47.27